EDT,Max TemperatureF,Mean TemperatureF,Min TemperatureF,Max Dew PointF,MeanDew PointF,Min DewpointF,Max Humidity, Mean Humidity, Min Humidity, Max Sea Level PressureIn, Mean Sea Level PressureIn, Min Sea Level PressureIn, Max VisibilityMiles, Mean VisibilityMiles, Min VisibilityMiles, Max Wind SpeedMPH, Mean Wind SpeedMPH, Max Gust SpeedMPH,PrecipitationIn, CloudCover, Events, WindDirDegrees
2013-8-1,66,64,61,64,62,59,100,94,87,30.06,29.94,29.87,9,2,0,17,6,23,0.46,8,Fog-Rain,169
2013-8-2,76,65,53,61,56,52,100,73,46,29.98,29.92,29.87,10,8,1,17,6,24,0.01,2,,283
2013-8-3,74,64,54,63,58,52,100,79,57,29.97,29.94,29.89,10,6,1,14,6,20,0.41,6,Rain,281
2013-8-4,71,61,50,54,51,48,96,75,53,30.03,29.96,29.93,10,10,7,22,8,31,0.00,2,,317
2013-8-5,71,60,49,54,47,43,93,68,42,30.11,30.08,30.04,10,10,2,14,5,20,0.00,0,,326
2013-8-6,73,60,47,59,52,45,93,71,49,30.14,30.12,30.09,10,10,10,15,6,21,0.00,3,,158
2013-8-7,67,64,60,66,63,57,100,94,87,30.16,30.12,30.07,10,2,0,16,8,22,0.12,8,Fog-Rain,160
2013-8-8,78,72,65,70,66,64,97,86,74,30.10,30.07,30.02,10,8,2,15,7,20,0.17,7,Rain,213
2013-8-9,79,73,66,70,69,65,100,84,67,30.05,29.94,29.86,10,5,0,16,8,22,2.40,7,Fog-Rain,246
2013-8-10,76,66,55,65,57,53,93,71,49,30.11,30.03,29.94,10,10,2,17,7,23,0.00,1,,313
2013-8-11,72,61,50,60,54,49,96,75,53,30.17,30.12,30.08,10,10,8,10,2,15,T,4,,299
2013-8-12,77,67,57,61,57,50,93,70,46,30.09,30.03,29.96,10,10,9,9,3,15,0.00,4,,291
2013-8-13,76,67,57,64,62,60,93,79,64,29.94,29.83,29.74,10,7,1,21,6,33,0.43,6,Rain,211
2013-8-14,65,57,49,49,47,43,83,70,56,30.09,29.93,29.82,10,10,10,22,11,31,0.00,3,,311
2013-8-15,70,57,44,52,46,42,93,67,40,30.19,30.16,30.11,10,10,7,14,4,21,0.00,1,,315
2013-8-16,74,61,48,51,47,45,93,67,41,30.24,30.20,30.17,10,10,10,9,2,14,0.00,3,,345
2013-8-17,74,62,50,56,53,50,93,70,46,30.32,30.29,30.25,10,10,8,10,2,16,0.00,1,,140
2013-8-18,69,63,56,59,56,53,93,78,63,30.30,30.25,30.18,10,10,6,7,1,20,T,3,Rain,115
2013-8-19,76,66,56,59,56,54,93,72,50,30.19,30.14,30.09,10,8,2,10,4,14,0.00,1,,304
2013-8-20,78,68,57,59,57,55,100,95,90,30.22,30.16,30.11,10,2,0,6,2,10,0.00,0,Fog,309
2013-8-21,81,73,64,63,59,54,93,66,39,30.26,30.20,30.10,10,9,6,8,4,10,0.00,0,,266
2013-8-22,80,73,65,68,65,60,93,74,54,30.10,30.03,29.93,10,6,2,18,6,24,0.38,4,Rain,289
2013-8-23,75,67,58,63,54,48,90,66,41,30.17,30.04,29.95,10,9,6,15,8,23,0.00,1,,354
2013-8-24,75,62,49,52,48,44,96,66,35,30.39,30.31,30.19,10,10,10,13,5,18,0.00,0,,60
2013-8-25,75,61,47,55,49,45,93,66,38,30.44,30.36,30.26,10,10,10,13,5,21,0.00,0,,245
2013-8-26,78,70,61,66,60,53,93,77,60,30.24,30.11,29.96,10,8,1,17,8,24,0.29,5,Rain,275
2013-8-27,81,72,63,65,63,61,93,74,54,29.97,29.94,29.89,10,9,6,17,6,24,0.01,5,,316
2013-8-28,73,68,62,67,65,60,93,89,84,29.97,29.94,29.90,10,6,0,12,3,25,0.79,6,Fog-Rain,165
2013-8-29,80,70,60,66,64,59,100,92,84,30.08,30.03,29.94,10,4,0,10,3,15,0.17,5,Fog-Rain,95
2013-8-30,81,74,66,70,65,57,93,71,49,30.08,30.00,29.89,10,4,0,14,7,20,0.00,4,Fog,251
2013-8-31,79,74,68,70,68,66,93,81,69,29.93,29.88,29.83,8,6,3,14,7,22,T,4,Rain,245